Terminal Aerodrome Forecast
Issued by NWS

Home | Current Version | Previous Version | Text Only | Print | Product List | Glossary Off
Versions: 1 2 3 4 5 6 7 8 9 10 11 12 13 14 15 16 17 18 19 20 21

000
FTUS43 KPAH 311100
TAFOWB
TAF
KOWB 311132Z 3112/0112 00000KT 6SM BR SKC
     FM311500 21004KT P6SM SCT050
     FM010800 00000KT 4SM BR SCT060=

USA.gov is the U.S. government's official web portal to all federal, state and local government web resources and services.